createdAt,value
2018-04-23T00:00:15.054Z,17.40
2018-04-23T00:05:16.584Z,17.30
2018-04-23T00:10:18.151Z,17.40
2018-04-23T00:15:19.687Z,17.30
2018-04-23T00:20:21.208Z,17.30
2018-04-23T00:25:22.737Z,17.30
2018-04-23T00:30:24.283Z,17.20
2018-04-23T00:35:25.863Z,17.30
2018-04-23T00:40:27.379Z,17.30
2018-04-23T00:45:28.887Z,17.20
2018-04-23T00:50:30.434Z,17.10
2018-04-23T00:55:32.741Z,17.20
2018-04-23T01:00:34.259Z,17.20
2018-04-23T01:05:35.874Z,17.40
2018-04-23T01:10:38.141Z,17.40
2018-04-23T01:15:40.411Z,17.30
2018-04-23T01:20:41.967Z,17.30
2018-04-23T01:25:43.544Z,17.30
2018-04-23T01:30:45.126Z,17.20
2018-04-23T01:35:46.650Z,17.10
2018-04-23T01:40:48.287Z,16.90
2018-04-23T01:45:50.570Z,17.10
2018-04-23T01:50:52.355Z,17.00
2018-04-23T01:55:53.966Z,17.00
2018-04-23T02:00:55.500Z,17.00
2018-04-23T02:05:57.017Z,17.10
2018-04-23T02:10:58.550Z,17.30
2018-04-23T02:16:00.072Z,17.40
2018-04-23T02:21:02.481Z,17.70
2018-04-23T02:26:04.020Z,17.70
2018-04-23T02:31:05.533Z,17.90
2018-04-23T02:36:07.056Z,17.90
2018-04-23T02:41:08.591Z,17.70
2018-04-23T02:46:10.139Z,17.80
2018-04-23T02:51:11.724Z,17.60
2018-04-23T02:56:13.269Z,17.60
2018-04-23T03:01:14.772Z,17.60
2018-04-23T03:06:16.279Z,17.60
2018-04-23T03:11:18.517Z,17.20
2018-04-23T03:16:20.032Z,17.20
2018-04-23T03:21:22.320Z,17.20
2018-04-23T03:26:24.674Z,17.20
2018-04-23T03:31:26.203Z,17.10
2018-04-23T03:36:27.702Z,17.10
2018-04-23T03:41:29.206Z,16.90
2018-04-23T03:46:31.576Z,16.70
2018-04-23T03:51:33.149Z,16.60
2018-04-23T03:56:35.410Z,16.40
2018-04-23T04:01:36.960Z,16.30
2018-04-23T04:06:38.521Z,16.40
2018-04-23T04:11:40.134Z,16.40
2018-04-23T04:16:53.763Z,16.40
2018-04-23T04:21:55.279Z,16.40
2018-04-23T04:27:01.168Z,16.50
2018-04-23T04:32:02.693Z,16.60
2018-04-23T04:37:04.218Z,16.70
2018-04-23T04:42:05.779Z,16.80
2018-04-23T04:47:07.297Z,17.00
2018-04-23T04:52:09.601Z,17.20
2018-04-23T04:57:11.970Z,17.20
2018-04-23T05:02:14.237Z,17.60
2018-04-23T05:07:15.768Z,17.60
2018-04-23T05:12:17.370Z,17.70
2018-04-23T05:17:19.071Z,17.80
2018-04-23T05:22:21.341Z,18.40
2018-04-23T05:27:22.870Z,18.30
2018-04-23T05:32:24.440Z,18.50
2018-04-23T05:37:26.015Z,18.70
2018-04-23T05:42:27.553Z,19.20
2018-04-23T05:47:29.113Z,19.70
2018-04-23T05:52:30.685Z,19.70
2018-04-23T05:57:32.264Z,19.50
2018-04-23T06:02:33.815Z,19.40
2018-04-23T06:07:35.385Z,19.60
2018-04-23T06:12:36.961Z,19.60
2018-04-23T06:17:38.483Z,19.90
2018-04-23T06:22:40.117Z,20.10
2018-04-23T06:27:41.690Z,19.90
2018-04-23T06:32:43.295Z,19.60
2018-04-23T06:37:44.934Z,19.30
2018-04-23T06:42:46.739Z,19.10
2018-04-23T06:47:48.344Z,19.00
2018-04-23T06:52:49.907Z,19.30
2018-04-23T06:57:52.192Z,19.80
2018-04-23T07:02:54.461Z,20.00
2018-04-23T07:07:56.751Z,20.20
2018-04-23T07:12:59.021Z,20.60
2018-04-23T07:18:00.732Z,20.60
2018-04-23T07:23:02.256Z,20.90
2018-04-23T07:28:03.810Z,21.10
2018-04-23T07:33:05.333Z,21.00
2018-04-23T07:38:06.945Z,21.20
2018-04-23T07:43:08.479Z,21.40
2018-04-23T07:48:10.037Z,21.40
2018-04-23T07:53:11.639Z,21.10
2018-04-23T07:58:13.225Z,20.70
2018-04-23T08:03:14.824Z,20.80
2018-04-23T08:08:17.263Z,21.90
2018-04-23T08:13:18.841Z,21.80
2018-04-23T08:18:20.376Z,22.30
2018-04-23T08:23:21.937Z,22.20
2018-04-23T08:28:23.516Z,21.70
2018-04-23T08:33:25.055Z,22.30
2018-04-23T08:38:27.359Z,23.90
2018-04-23T08:43:28.901Z,23.80
2018-04-23T08:48:30.451Z,23.90
2018-04-23T08:53:32.165Z,24.20
2018-04-23T08:58:34.475Z,24.60
2018-04-23T09:03:36.247Z,24.60
2018-04-23T09:08:37.776Z,24.10
2018-04-23T09:13:40.094Z,25.30
2018-04-23T09:18:41.655Z,25.30
2018-04-23T09:23:43.188Z,25.80
2018-04-23T09:28:46.621Z,25.20
2018-04-23T09:33:48.875Z,23.90
2018-04-23T09:38:50.382Z,23.70
2018-04-23T09:43:58.890Z,23.30
2018-04-23T09:49:01.184Z,23.00
2018-04-23T09:54:03.491Z,22.80
2018-04-23T09:59:05.044Z,22.70
2018-04-23T10:04:06.583Z,22.60
2018-04-23T10:09:08.202Z,22.60
2018-04-23T10:14:16.833Z,23.20
2018-04-23T10:19:18.531Z,23.60
2018-04-23T10:24:20.769Z,24.10
2018-04-23T10:29:23.063Z,24.70
2018-04-23T10:34:24.807Z,24.60
2018-04-23T10:39:26.378Z,25.20
2018-04-23T10:44:28.710Z,24.90
2018-04-23T10:49:30.348Z,24.90
2018-04-23T10:54:32.684Z,25.20
2018-04-23T10:59:34.316Z,25.10
2018-04-23T11:04:35.991Z,24.90
2018-04-23T11:09:37.688Z,25.00
2018-04-23T11:14:40.979Z,24.70
2018-04-23T11:19:42.614Z,24.60
2018-04-23T11:24:44.207Z,25.00
2018-04-23T11:29:45.736Z,25.00
2018-04-23T11:34:47.266Z,25.00
2018-04-23T11:39:48.838Z,25.40
2018-04-23T11:44:50.405Z,25.50
2018-04-23T11:49:51.983Z,25.50
2018-04-23T11:54:53.777Z,25.90
2018-04-23T11:59:55.403Z,26.10
2018-04-23T12:04:57.188Z,25.40
2018-04-23T12:09:58.788Z,24.70
2018-04-23T12:15:00.390Z,24.80
2018-04-23T12:20:02.191Z,25.20
2018-04-23T12:25:03.787Z,24.70
2018-04-23T12:30:05.329Z,23.90
2018-04-23T12:35:06.844Z,23.00
2018-04-23T12:40:08.517Z,22.50
2018-04-23T12:45:10.103Z,22.50
2018-04-23T12:50:12.449Z,23.00
2018-04-23T12:55:14.080Z,22.90
2018-04-23T13:00:15.627Z,23.40
2018-04-23T13:05:17.298Z,24.00
2018-04-23T13:10:19.593Z,24.90
2018-04-23T13:15:21.902Z,25.00
2018-04-23T13:20:23.461Z,24.90
2018-04-23T13:25:25.026Z,25.20
2018-04-23T13:30:27.352Z,25.80
2018-04-23T13:35:29.668Z,25.80
2018-04-23T13:40:31.219Z,25.60
2018-04-23T13:45:32.720Z,25.10
2018-04-23T13:50:34.309Z,24.90
2018-04-23T13:55:43.044Z,24.90
2018-04-23T14:00:44.626Z,24.80
2018-04-23T14:05:46.210Z,24.70
2018-04-23T14:10:47.801Z,24.70
2018-04-23T14:15:49.364Z,24.30
2018-04-23T14:20:50.955Z,24.20
2018-04-23T14:25:52.492Z,24.40
2018-04-23T14:30:54.070Z,24.10
2018-04-23T14:35:55.637Z,24.30
2018-04-23T14:40:57.230Z,24.90
2018-04-23T14:45:58.837Z,25.00
2018-04-23T14:51:00.425Z,24.80
2018-04-23T14:56:01.999Z,24.60
2018-04-23T15:01:03.602Z,24.60
2018-04-23T15:06:05.201Z,24.60
2018-04-23T15:11:06.931Z,24.30
2018-04-23T15:16:08.543Z,24.80
2018-04-23T15:21:10.195Z,24.80
2018-04-23T15:26:12.560Z,24.50
2018-04-23T15:31:14.163Z,24.40
2018-04-23T15:36:16.709Z,24.70
2018-04-23T15:41:18.338Z,24.60
2018-04-23T15:46:19.955Z,24.80
2018-04-23T15:51:21.549Z,24.60
2018-04-23T15:56:23.160Z,24.40
2018-04-23T16:01:25.039Z,24.40
2018-04-23T16:06:26.609Z,24.30
2018-04-23T16:11:28.157Z,24.50
2018-04-23T16:16:29.699Z,24.50
2018-04-23T16:21:31.999Z,24.10
2018-04-23T16:26:34.323Z,23.70
2018-04-23T16:31:35.917Z,23.60
2018-04-23T16:36:37.812Z,23.50
2018-04-23T16:41:39.380Z,23.40
2018-04-23T16:46:40.914Z,23.20
2018-04-23T16:51:42.428Z,23.10
2018-04-23T16:56:44.799Z,23.10
2018-04-23T17:01:46.480Z,23.10
2018-04-23T17:06:48.060Z,23.30
2018-04-23T17:11:50.421Z,23.20
2018-04-23T17:16:52.076Z,23.10
2018-04-23T17:21:53.712Z,23.00
2018-04-23T17:26:55.751Z,22.80
2018-04-23T17:31:57.435Z,22.80
2018-04-23T17:36:59.755Z,22.40
2018-04-23T17:42:01.479Z,22.30
2018-04-23T17:47:03.264Z,22.20
2018-04-23T17:52:04.818Z,22.10
2018-04-23T17:57:06.410Z,21.80
2018-04-23T18:02:08.731Z,21.30
2018-04-23T18:07:10.309Z,21.20
2018-04-23T18:12:12.067Z,21.00
2018-04-23T18:17:13.724Z,20.80
2018-04-23T18:22:16.072Z,20.60
2018-04-23T18:27:17.680Z,20.50
2018-04-23T18:32:19.273Z,20.50
2018-04-23T18:37:20.852Z,20.20
2018-04-23T18:42:22.421Z,20.20
2018-04-23T18:47:23.900Z,20.10
2018-04-23T18:52:25.456Z,20.00
2018-04-23T18:57:27.092Z,19.90
2018-04-23T19:02:29.451Z,19.50
2018-04-23T19:07:31.137Z,19.30
2018-04-23T19:12:34.187Z,19.20
2018-04-23T19:17:35.753Z,19.10
2018-04-23T19:22:37.402Z,19.20
2018-04-23T19:27:39.221Z,19.10
2018-04-23T19:32:40.787Z,18.60
2018-04-23T19:37:42.391Z,18.70
2018-04-23T19:42:44.832Z,18.60
2018-04-23T19:47:46.486Z,18.50
2018-04-23T19:52:48.146Z,18.40
2018-04-23T19:57:49.755Z,18.40
2018-04-23T20:02:51.333Z,18.30
2018-04-23T20:07:52.914Z,18.20
2018-04-23T20:12:54.536Z,18.00
2018-04-23T20:17:56.179Z,17.90
2018-04-23T20:22:58.621Z,17.60
2018-04-23T20:28:00.163Z,17.60
2018-04-23T20:33:01.848Z,17.50
2018-04-23T20:38:03.814Z,17.40
2018-04-23T20:43:05.361Z,17.30
2018-04-23T20:48:07.047Z,17.30
2018-04-23T20:53:08.990Z,17.10
2018-04-23T20:58:10.676Z,17.00
2018-04-23T21:03:13.003Z,16.70
2018-04-23T21:08:14.591Z,16.60
2018-04-23T21:13:16.272Z,16.60
2018-04-23T21:18:18.075Z,16.50
2018-04-23T21:23:19.695Z,16.40
2018-04-23T21:28:21.277Z,16.30
2018-04-23T21:33:22.825Z,16.20
2018-04-23T21:38:24.410Z,15.90
2018-04-23T21:43:26.020Z,15.80
2018-04-23T21:48:27.544Z,15.70
2018-04-23T21:53:29.183Z,15.70
2018-04-23T21:58:30.860Z,15.50
2018-04-23T22:03:32.414Z,15.10
2018-04-23T22:08:33.938Z,15.00
2018-04-23T22:13:35.503Z,14.90
2018-04-23T22:18:37.041Z,15.00
2018-04-23T22:23:38.787Z,15.00
2018-04-23T22:28:40.420Z,15.00
2018-04-23T22:33:41.960Z,15.10
2018-04-23T22:38:43.568Z,15.00
2018-04-23T22:43:45.842Z,14.80
2018-04-23T22:48:47.510Z,14.80
2018-04-23T22:53:49.184Z,14.80
2018-04-23T22:58:50.774Z,14.60
2018-04-23T23:03:53.113Z,14.50
2018-04-23T23:08:54.669Z,14.40
2018-04-23T23:13:56.176Z,14.50
2018-04-23T23:18:58.482Z,14.30
2018-04-23T23:23:59.986Z,14.20
2018-04-23T23:29:01.531Z,14.20
2018-04-23T23:34:03.111Z,14.20
2018-04-23T23:39:05.658Z,14.00
2018-04-23T23:44:07.310Z,13.60
2018-04-23T23:49:08.895Z,13.50
2018-04-23T23:54:10.492Z,13.40
2018-04-23T23:59:12.176Z,13.40
